Time;durP1;ratioP1;P1;durP2;ratioP2;P2;SDS_P1;SDS_P2;PMS_P1;PMS_P2;Temp;Humidity;BMP_temperature;BMP_pressure;BME280_temperature;BME280_humidity;BME280_pressure;Samples;Min_cycle;Max_cycle;Signal;HPM_P1;HPM_P2
2022/06/29 00:01:18;;;;;;;;;;;20.20;58.90;;;;;;5051847;28;19909;-60
2022/06/29 00:03:45;;;;;;;;;;;20.20;58.80;;;;;;5052765;28;19972;-60
2022/06/29 00:06:10;;;;;;;;;;;20.20;59.90;;;;;;5051288;28;19998;-60
2022/06/29 00:08:36;;;;;;;;;;;20.20;59.70;;;;;;5051830;28;20600;-60
2022/06/29 00:11:01;;;;;;;;;;;20.20;59.50;;;;;;5052583;28;19920;-60
2022/06/29 00:13:27;;;;;;;;;;;20.20;59.10;;;;;;5051712;28;19917;-60
2022/06/29 00:15:53;;;;;;;;;;;20.20;59.90;;;;;;5052141;28;19908;-60
2022/06/29 00:18:18;;;;;;;;;;;20.20;59.60;;;;;;5052715;28;19924;-59
2022/06/29 00:20:44;;;;;;;;;;;20.20;60.40;;;;;;5051575;28;19909;-60
2022/06/29 00:23:10;;;;;;;;;;;20.10;59.70;;;;;;5051708;28;20303;-60
2022/06/29 00:25:36;;;;;;;;;;;20.10;60.00;;;;;;5051396;28;20363;-60
2022/06/29 00:28:01;;;;;;;;;;;20.10;59.80;;;;;;5052551;28;19923;-60
2022/06/29 00:30:27;;;;;;;;;;;20.10;60.80;;;;;;5055084;28;19917;-59
2022/06/29 00:32:53;;;;;;;;;;;20.00;60.00;;;;;;5052813;28;19912;-59
2022/06/29 00:35:18;;;;;;;;;;;20.00;61.20;;;;;;5051511;28;19962;-59
2022/06/29 00:37:44;;;;;;;;;;;20.00;60.20;;;;;;5051649;28;20430;-61
2022/06/29 00:40:11;;;;;;;;;;;19.90;60.20;;;;;;5051351;28;20402;-59
2022/06/29 00:42:36;;;;;;;;;;;19.90;61.60;;;;;;5050922;28;19916;-60
2022/06/29 00:45:02;;;;;;;;;;;19.90;60.70;;;;;;5050739;28;19912;-60
2022/06/29 00:47:28;;;;;;;;;;;19.90;60.80;;;;;;5050747;28;19917;-59
2022/06/29 00:49:53;;;;;;;;;;;19.90;62.00;;;;;;5051114;28;19920;-59
2022/06/29 00:52:22;;;;;;;;;;;19.80;61.50;;;;;;5051185;28;19909;-61
2022/06/29 00:55:09;;;;;;;;;;;19.80;60.70;;;;;;5049806;28;19959;-60
2022/06/29 00:57:37;;;;;;;;;;;19.80;61.30;;;;;;5051148;28;19928;-58
2022/06/29 01:00:03;;;;;;;;;;;19.70;61.20;;;;;;5050802;28;19936;-60
2022/06/29 01:02:32;;;;;;;;;;;19.70;61.80;;;;;;5051436;28;19931;-61
2022/06/29 01:04:58;;;;;;;;;;;19.70;62.60;;;;;;5050655;28;19953;-61
2022/06/29 01:07:24;;;;;;;;;;;19.60;61.90;;;;;;5050543;28;20364;-59
2022/06/29 01:09:50;;;;;;;;;;;19.60;62.10;;;;;;5051402;28;19909;-60
2022/06/29 01:12:16;;;;;;;;;;;19.60;61.90;;;;;;5050612;28;19935;-60
2022/06/29 01:14:45;;;;;;;;;;;19.60;62.30;;;;;;5050927;28;19963;-60
2022/06/29 01:17:13;;;;;;;;;;;19.50;63.00;;;;;;5050463;28;19958;-60
2022/06/29 01:19:39;;;;;;;;;;;19.50;63.00;;;;;;5050395;28;19917;-59
2022/06/29 01:22:07;;;;;;;;;;;19.50;63.50;;;;;;5051226;28;19909;-61
2022/06/29 01:24:32;;;;;;;;;;;19.50;65.10;;;;;;5050939;28;19909;-60
2022/06/29 01:26:58;;;;;;;;;;;19.50;63.80;;;;;;5050227;28;19919;-60
2022/06/29 01:29:23;;;;;;;;;;;19.40;63.90;;;;;;5050418;28;20379;-60
2022/06/29 01:31:53;;;;;;;;;;;19.40;64.20;;;;;;5051023;28;19917;-60
2022/06/29 01:34:18;;;;;;;;;;;19.40;65.80;;;;;;5050271;28;19909;-60
2022/06/29 01:36:44;;;;;;;;;;;19.30;65.40;;;;;;5051257;28;19916;-60
2022/06/29 01:39:09;;;;;;;;;;;19.30;65.10;;;;;;5049790;28;20280;-60
2022/06/29 01:41:35;;;;;;;;;;;19.30;65.40;;;;;;5050230;28;19919;-60
2022/06/29 01:44:00;;;;;;;;;;;19.30;63.70;;;;;;5050090;28;20376;-60
2022/06/29 01:46:26;;;;;;;;;;;19.30;64.90;;;;;;5050440;28;19940;-60
2022/06/29 01:48:51;;;;;;;;;;;19.20;64.70;;;;;;5050917;28;19913;-60
2022/06/29 01:51:17;;;;;;;;;;;19.20;64.00;;;;;;5050092;28;19923;-61
2022/06/29 01:53:42;;;;;;;;;;;19.20;65.40;;;;;;5049820;28;19912;-60
2022/06/29 01:56:08;;;;;;;;;;;19.10;66.70;;;;;;5048963;28;19916;-60
2022/06/29 01:58:33;;;;;;;;;;;19.10;65.80;;;;;;5050090;28;19921;-60
2022/06/29 02:00:59;;;;;;;;;;;19.10;66.90;;;;;;5051053;28;19917;-60
2022/06/29 02:03:24;;;;;;;;;;;19.10;66.60;;;;;;5049103;28;19928;-60
2022/06/29 02:05:50;;;;;;;;;;;19.10;65.10;;;;;;5050181;28;20357;-60
2022/06/29 02:08:15;;;;;;;;;;;19.00;65.90;;;;;;5050322;28;19917;-60
2022/06/29 02:10:41;;;;;;;;;;;19.00;66.30;;;;;;5049341;28;19913;-60
2022/06/29 02:13:06;;;;;;;;;;;18.90;66.10;;;;;;5050169;28;19958;-60
2022/06/29 02:15:32;;;;;;;;;;;18.90;67.40;;;;;;5050272;28;19961;-60
2022/06/29 02:17:57;;;;;;;;;;;18.90;69.00;;;;;;5049795;28;20275;-58
2022/06/29 02:20:23;;;;;;;;;;;18.90;67.00;;;;;;5049418;28;19913;-60
2022/06/29 02:22:48;;;;;;;;;;;18.80;69.70;;;;;;5031627;28;19952;-60
2022/06/29 02:25:14;;;;;;;;;;;18.80;69.10;;;;;;5049427;28;19913;-60
2022/06/29 02:27:40;;;;;;;;;;;18.80;69.80;;;;;;5050628;28;20256;-61
2022/06/29 02:30:06;;;;;;;;;;;18.80;70.10;;;;;;5046411;28;19974;-60
2022/06/29 02:35:16;;;;;;;;;;;18.80;69.30;;;;;;5049747;28;20312;-60
2022/06/29 02:37:41;;;;;;;;;;;18.70;70.20;;;;;;5049876;28;19921;-61
2022/06/29 02:40:07;;;;;;;;;;;18.70;71.10;;;;;;5049468;28;19909;-61
2022/06/29 02:42:33;;;;;;;;;;;18.60;70.90;;;;;;5032032;28;19908;-60
2022/06/29 02:44:58;;;;;;;;;;;18.60;70.90;;;;;;5049656;28;19917;-62
2022/06/29 02:47:24;;;;;;;;;;;18.50;71.70;;;;;;5049560;28;19913;-60
2022/06/29 02:49:49;;;;;;;;;;;18.50;72.30;;;;;;5049234;28;19916;-60
2022/06/29 02:52:15;;;;;;;;;;;18.40;70.90;;;;;;5049517;28;20003;-60
2022/06/29 02:54:40;;;;;;;;;;;18.40;70.70;;;;;;5049572;28;19966;-61
2022/06/29 02:57:06;;;;;;;;;;;18.40;72.30;;;;;;5049503;28;19917;-61
2022/06/29 02:59:31;;;;;;;;;;;18.40;70.80;;;;;;5049213;28;20007;-61
2022/06/29 03:01:57;;;;;;;;;;;18.40;68.90;;;;;;5049106;28;20007;-61
2022/06/29 03:04:22;;;;;;;;;;;18.40;71.20;;;;;;5049455;28;19927;-61
2022/06/29 03:06:48;;;;;;;;;;;18.30;72.40;;;;;;5057463;28;19971;-61
2022/06/29 03:09:13;;;;;;;;;;;18.30;72.30;;;;;;5052898;28;20379;-61
2022/06/29 03:11:39;;;;;;;;;;;18.20;72.50;;;;;;5052687;28;19967;-61
2022/06/29 03:14:04;;;;;;;;;;;18.20;72.70;;;;;;5052847;28;20260;-62
2022/06/29 03:16:30;;;;;;;;;;;18.20;73.10;;;;;;5052765;28;19913;-62
2022/06/29 03:18:55;;;;;;;;;;;18.20;74.10;;;;;;5054248;28;20364;-61
2022/06/29 03:21:21;;;;;;;;;;;18.20;73.60;;;;;;5052881;28;19969;-60
2022/06/29 03:23:46;;;;;;;;;;;18.10;74.10;;;;;;5052243;28;19913;-61
2022/06/29 03:26:12;;;;;;;;;;;18.10;73.80;;;;;;5052388;28;20383;-61
2022/06/29 03:28:37;;;;;;;;;;;18.10;74.80;;;;;;5053290;28;19992;-61
2022/06/29 03:31:03;;;;;;;;;;;18.00;75.30;;;;;;5053510;28;19951;-61
2022/06/29 03:33:29;;;;;;;;;;;18.00;75.00;;;;;;5052170;28;19909;-61
2022/06/29 03:35:54;;;;;;;;;;;18.00;75.70;;;;;;5054416;28;19924;-62
2022/06/29 03:38:20;;;;;;;;;;;17.90;76.00;;;;;;5052451;28;19924;-61
2022/06/29 03:40:45;;;;;;;;;;;17.90;76.00;;;;;;5052403;28;19913;-61
2022/06/29 03:43:11;;;;;;;;;;;17.80;76.40;;;;;;5052681;28;19908;-59
2022/06/29 03:45:36;;;;;;;;;;;17.80;76.70;;;;;;5052642;28;19942;-61
2022/06/29 03:48:02;;;;;;;;;;;17.70;76.80;;;;;;5051965;28;19963;-62
2022/06/29 03:50:27;;;;;;;;;;;17.70;76.60;;;;;;5052071;28;19919;-62
2022/06/29 03:52:53;;;;;;;;;;;17.70;75.80;;;;;;5051861;28;19971;-62
2022/06/29 03:55:18;;;;;;;;;;;17.70;75.80;;;;;;5052281;28;19912;-61
2022/06/29 03:57:44;;;;;;;;;;;17.70;75.30;;;;;;5052868;28;19924;-58
2022/06/29 04:00:10;;;;;;;;;;;17.70;77.00;;;;;;5051635;28;19986;-61
2022/06/29 04:02:36;;;;;;;;;;;17.70;78.30;;;;;;5052035;28;19913;-61
2022/06/29 04:05:02;;;;;;;;;;;17.60;77.20;;;;;;5051937;28;20012;-59
2022/06/29 04:07:28;;;;;;;;;;;17.60;74.60;;;;;;5051970;28;19924;-60
2022/06/29 04:09:59;;;;;;;;;;;17.60;75.90;;;;;;5052782;28;19912;-59
2022/06/29 04:12:28;;;;;;;;;;;17.60;77.20;;;;;;5051490;28;20427;-61
2022/06/29 04:14:54;;;;;;;;;;;17.60;77.70;;;;;;5051369;28;20398;-59
2022/06/29 04:17:19;;;;;;;;;;;17.60;77.90;;;;;;5051422;28;19913;-61
2022/06/29 04:19:44;;;;;;;;;;;17.60;77.10;;;;;;5051785;28;20513;-57
2022/06/29 04:22:10;;;;;;;;;;;17.60;78.20;;;;;;5051622;28;19913;-61
2022/06/29 04:24:35;;;;;;;;;;;17.60;76.70;;;;;;5052012;28;20286;-59
2022/06/29 04:27:01;;;;;;;;;;;17.60;76.90;;;;;;5051894;28;19913;-61
2022/06/29 04:29:26;;;;;;;;;;;17.60;77.50;;;;;;5051336;28;20124;-61
2022/06/29 04:31:52;;;;;;;;;;;17.60;76.90;;;;;;5051215;28;19917;-61
2022/06/29 04:34:17;;;;;;;;;;;17.60;77.00;;;;;;5051696;28;19947;-61
2022/06/29 04:36:43;;;;;;;;;;;17.70;77.70;;;;;;5033783;28;20283;-61
2022/06/29 04:39:09;;;;;;;;;;;17.70;77.70;;;;;;5054726;28;19920;-62
2022/06/29 04:41:34;;;;;;;;;;;17.70;77.20;;;;;;5051119;28;19995;-61
2022/06/29 04:44:00;;;;;;;;;;;17.80;76.90;;;;;;5053105;28;19963;-61
2022/06/29 04:46:25;;;;;;;;;;;17.80;76.90;;;;;;5033606;28;19917;-61
2022/06/29 04:49:00;;;;;;;;;;;17.90;75.90;;;;;;5052375;28;20062;-60
2022/06/29 04:51:27;;;;;;;;;;;17.90;76.40;;;;;;5050564;28;19935;-60
2022/06/29 04:53:56;;;;;;;;;;;18.00;75.50;;;;;;5050970;28;20017;-61
2022/06/29 04:56:22;;;;;;;;;;;18.00;75.50;;;;;;5051069;28;20386;-61
2022/06/29 04:58:48;;;;;;;;;;;18.10;76.10;;;;;;5050658;28;19935;-61
2022/06/29 05:01:14;;;;;;;;;;;18.20;75.40;;;;;;5051210;28;20395;-61
2022/06/29 05:03:40;;;;;;;;;;;18.20;76.70;;;;;;5031351;28;19921;-60
2022/06/29 05:06:05;;;;;;;;;;;18.30;75.30;;;;;;5050854;28;20441;-60
2022/06/29 05:08:31;;;;;;;;;;;18.30;75.80;;;;;;5050434;28;19936;-60
2022/06/29 05:10:56;;;;;;;;;;;18.40;75.90;;;;;;5050849;28;19913;-60
2022/06/29 05:13:22;;;;;;;;;;;18.40;77.70;;;;;;5050306;28;19915;-61
2022/06/29 05:15:47;;;;;;;;;;;18.50;77.80;;;;;;5051775;28;19913;-60
2022/06/29 05:18:13;;;;;;;;;;;18.50;77.70;;;;;;5050745;28;19964;-60
2022/06/29 05:20:38;;;;;;;;;;;18.60;77.60;;;;;;5050015;28;20424;-60
2022/06/29 05:23:04;;;;;;;;;;;18.70;76.50;;;;;;5050482;28;19958;-60
2022/06/29 05:25:30;;;;;;;;;;;18.70;75.90;;;;;;5050300;28;19921;-60
2022/06/29 05:27:56;;;;;;;;;;;18.70;75.80;;;;;;5050769;28;20386;-60
2022/06/29 05:30:21;;;;;;;;;;;18.70;75.10;;;;;;5050257;28;19913;-60
2022/06/29 05:32:47;;;;;;;;;;;18.80;76.00;;;;;;5050014;28;19923;-60
2022/06/29 05:35:13;;;;;;;;;;;18.80;75.80;;;;;;5051318;28;19913;-60
2022/06/29 05:37:38;;;;;;;;;;;18.90;74.40;;;;;;5050288;28;19917;-60
2022/06/29 05:40:04;;;;;;;;;;;18.90;74.60;;;;;;5051567;28;19913;-60
2022/06/29 05:42:30;;;;;;;;;;;18.90;74.20;;;;;;5049717;28;19916;-61
2022/06/29 05:44:55;;;;;;;;;;;18.90;74.10;;;;;;5050238;28;19958;-59
2022/06/29 05:47:21;;;;;;;;;;;18.90;74.20;;;;;;5052343;28;20382;-61
2022/06/29 05:49:46;;;;;;;;;;;18.90;74.40;;;;;;5050113;28;19987;-60
2022/06/29 05:52:12;;;;;;;;;;;18.90;74.50;;;;;;5050061;28;19908;-60
2022/06/29 05:54:38;;;;;;;;;;;18.90;74.00;;;;;;5050388;28;19967;-60
2022/06/29 05:57:05;;;;;;;;;;;18.90;74.10;;;;;;5049653;28;19913;-60
2022/06/29 05:59:30;;;;;;;;;;;18.90;74.20;;;;;;5049462;28;19928;-60
2022/06/29 06:01:56;;;;;;;;;;;18.90;73.90;;;;;;5049824;28;19912;-61
2022/06/29 06:04:21;;;;;;;;;;;18.90;74.00;;;;;;5031863;28;19978;-61
2022/06/29 06:06:47;;;;;;;;;;;18.90;73.80;;;;;;5050454;28;19924;-61
2022/06/29 06:09:12;;;;;;;;;;;18.90;73.30;;;;;;5049520;28;20017;-61
2022/06/29 06:11:38;;;;;;;;;;;18.90;73.50;;;;;;5049478;28;19917;-61
2022/06/29 06:14:03;;;;;;;;;;;18.90;73.70;;;;;;5049580;28;19909;-60
2022/06/29 06:16:29;;;;;;;;;;;18.90;73.30;;;;;;5048939;28;20003;-58
2022/06/29 06:18:54;;;;;;;;;;;18.90;73.20;;;;;;5046455;28;19920;-60
2022/06/29 06:21:21;;;;;;;;;;;19.00;73.20;;;;;;5049078;28;20379;-60
2022/06/29 06:23:47;;;;;;;;;;;19.00;73.10;;;;;;5048396;28;19921;-61
2022/06/29 06:26:13;;;;;;;;;;;18.90;73.20;;;;;;5043044;28;19917;-62
2022/06/29 06:28:39;;;;;;;;;;;18.90;73.00;;;;;;5049491;28;19921;-64
2022/06/29 06:31:07;;;;;;;;;;;19.00;73.60;;;;;;5046309;28;19913;-60
2022/06/29 06:33:32;;;;;;;;;;;19.00;73.10;;;;;;5050460;28;20383;-61
2022/06/29 06:35:57;;;;;;;;;;;19.10;73.00;;;;;;5049461;28;19923;-62
2022/06/29 06:38:23;;;;;;;;;;;19.10;72.80;;;;;;5051129;28;19920;-61
2022/06/29 06:43:32;;;;;;;;;;;19.20;72.90;;;;;;5060162;28;19919;-62
2022/06/29 06:45:58;;;;;;;;;;;19.30;72.70;;;;;;5053869;28;19913;-61
2022/06/29 06:48:23;;;;;;;;;;;19.30;72.70;;;;;;5051724;28;19913;-60
2022/06/29 06:50:49;;;;;;;;;;;19.30;72.80;;;;;;5045856;28;19923;-63
2022/06/29 06:53:15;;;;;;;;;;;19.40;73.20;;;;;;5049877;28;20407;-61
2022/06/29 06:55:40;;;;;;;;;;;19.50;72.90;;;;;;5048334;28;19924;-59
2022/06/29 06:58:06;;;;;;;;;;;19.60;73.20;;;;;;5052114;28;20788;-59
2022/06/29 07:00:31;;;;;;;;;;;19.60;73.00;;;;;;5052643;28;20003;-59
2022/06/29 07:02:57;;;;;;;;;;;19.70;72.90;;;;;;5050236;28;20467;-64
2022/06/29 07:05:23;;;;;;;;;;;19.70;72.80;;;;;;5044226;28;19921;-63
2022/06/29 07:07:48;;;;;;;;;;;19.80;72.70;;;;;;5049186;28;19917;-62
2022/06/29 07:10:14;;;;;;;;;;;19.80;72.70;;;;;;5033184;28;20011;-60
2022/06/29 07:12:39;;;;;;;;;;;19.90;72.60;;;;;;5050518;28;19935;-64
2022/06/29 07:15:05;;;;;;;;;;;20.00;72.70;;;;;;5050073;28;19981;-63
2022/06/29 07:17:31;;;;;;;;;;;20.00;72.60;;;;;;5052206;28;20402;-61
2022/06/29 07:19:57;;;;;;;;;;;20.10;72.50;;;;;;5050990;28;19924;-63
2022/06/29 07:22:23;;;;;;;;;;;20.10;72.60;;;;;;5053559;28;19986;-63
2022/06/29 07:24:48;;;;;;;;;;;20.20;72.40;;;;;;5049292;28;20494;-62
2022/06/29 07:27:14;;;;;;;;;;;20.30;72.50;;;;;;5050378;28;19959;-63
2022/06/29 07:29:39;;;;;;;;;;;20.30;72.30;;;;;;5050529;28;19912;-62
2022/06/29 07:32:05;;;;;;;;;;;20.40;72.30;;;;;;5051626;28;20618;-62
2022/06/29 07:34:31;;;;;;;;;;;20.50;72.00;;;;;;5050792;28;20399;-63
2022/06/29 07:36:56;;;;;;;;;;;20.50;72.10;;;;;;5053214;28;20383;-62
2022/06/29 07:39:22;;;;;;;;;;;20.60;72.20;;;;;;5049974;28;19921;-62
2022/06/29 07:41:47;;;;;;;;;;;20.70;72.30;;;;;;5052577;28;20365;-62
2022/06/29 07:44:13;;;;;;;;;;;20.80;72.10;;;;;;5048216;28;19913;-61
2022/06/29 07:46:38;;;;;;;;;;;20.80;72.00;;;;;;5049762;28;19963;-64
2022/06/29 07:49:04;;;;;;;;;;;21.00;71.80;;;;;;5051236;28;19924;-61
2022/06/29 07:51:29;;;;;;;;;;;21.00;71.40;;;;;;5032702;28;20497;-59
2022/06/29 07:53:55;;;;;;;;;;;21.10;71.50;;;;;;5052894;28;20264;-59
2022/06/29 07:56:20;;;;;;;;;;;21.20;71.20;;;;;;5050684;28;19917;-60
2022/06/29 07:58:46;;;;;;;;;;;21.20;71.00;;;;;;5049386;28;19920;-59
2022/06/29 08:01:11;;;;;;;;;;;21.30;70.90;;;;;;5048022;28;20383;-60
2022/06/29 08:03:37;;;;;;;;;;;21.40;71.00;;;;;;5051832;28;19921;-59
2022/06/29 08:06:05;;;;;;;;;;;21.40;70.80;;;;;;5049638;28;19913;-59
2022/06/29 08:08:31;;;;;;;;;;;21.50;70.50;;;;;;5030413;28;19920;-59
2022/06/29 08:10:56;;;;;;;;;;;21.50;70.20;;;;;;5049821;28;19912;-59
2022/06/29 08:13:22;;;;;;;;;;;21.60;70.40;;;;;;5049103;28;20383;-59
2022/06/29 08:15:47;;;;;;;;;;;21.70;70.40;;;;;;5050937;28;19920;-59
2022/06/29 08:18:13;;;;;;;;;;;21.70;70.30;;;;;;5048962;28;20016;-59
2022/06/29 08:20:39;;;;;;;;;;;21.80;69.90;;;;;;5050364;28;19916;-59
2022/06/29 08:23:05;;;;;;;;;;;21.80;69.90;;;;;;5051110;28;19913;-58
2022/06/29 08:25:31;;;;;;;;;;;21.90;69.80;;;;;;5049285;28;19917;-57
2022/06/29 08:27:56;;;;;;;;;;;21.90;69.60;;;;;;5048176;28;20379;-59
2022/06/29 08:30:22;;;;;;;;;;;21.90;69.70;;;;;;5049177;28;19913;-57
2022/06/29 08:32:47;;;;;;;;;;;21.90;69.00;;;;;;5031156;28;20038;-59
2022/06/29 08:35:14;;;;;;;;;;;21.90;69.30;;;;;;5050167;28;19921;-59
2022/06/29 08:37:40;;;;;;;;;;;21.90;69.30;;;;;;5049292;28;20378;-58
2022/06/29 08:40:06;;;;;;;;;;;21.90;69.20;;;;;;5049975;28;19948;-64
2022/06/29 08:42:33;;;;;;;;;;;21.90;69.20;;;;;;5048688;28;20039;-62
2022/06/29 08:44:59;;;;;;;;;;;21.90;69.30;;;;;;5047851;28;19921;-61
2022/06/29 08:47:24;;;;;;;;;;;21.90;69.00;;;;;;5048778;28;19923;-61
2022/06/29 08:49:50;;;;;;;;;;;21.90;68.80;;;;;;5049177;28;19923;-62
2022/06/29 08:52:16;;;;;;;;;;;22.00;68.70;;;;;;5049698;28;20402;-62
2022/06/29 08:54:43;;;;;;;;;;;22.00;68.60;;;;;;5049188;28;19917;-62
2022/06/29 08:57:09;;;;;;;;;;;22.00;68.30;;;;;;5048294;28;19916;-60
2022/06/29 08:59:34;;;;;;;;;;;22.10;68.40;;;;;;5048800;28;19920;-60
2022/06/29 09:02:00;;;;;;;;;;;22.10;68.40;;;;;;5047308;28;19923;-62
2022/06/29 09:04:26;;;;;;;;;;;22.10;68.40;;;;;;5047805;28;20011;-61
2022/06/29 09:06:55;;;;;;;;;;;22.10;68.30;;;;;;5048951;28;20044;-63
2022/06/29 09:09:22;;;;;;;;;;;22.20;68.40;;;;;;5048436;28;19919;-62
2022/06/29 09:11:49;;;;;;;;;;;22.20;68.20;;;;;;5047795;28;20038;-61
2022/06/29 09:14:19;;;;;;;;;;;22.30;68.10;;;;;;5048961;28;19923;-60
2022/06/29 09:16:51;;;;;;;;;;;22.30;68.40;;;;;;5048590;28;19913;-61
2022/06/29 09:19:16;;;;;;;;;;;22.40;68.10;;;;;;5048262;28;19922;-61
2022/06/29 09:21:45;;;;;;;;;;;22.40;68.10;;;;;;5049062;28;20595;-60
2022/06/29 09:24:17;;;;;;;;;;;22.40;67.60;;;;;;5047611;28;19917;-61
2022/06/29 09:26:43;;;;;;;;;;;22.40;67.20;;;;;;5047270;28;20468;-62
2022/06/29 09:29:21;;;;;;;;;;;22.40;67.40;;;;;;5048327;28;19971;-61
2022/06/29 09:32:05;;;;;;;;;;;22.40;67.40;;;;;;5045771;28;19912;-60
2022/06/29 09:34:48;;;;;;;;;;;22.40;66.20;;;;;;5125770;27;20322;-60
2022/06/29 09:37:15;;;;;;;;;;;22.30;66.00;;;;;;5128422;27;19912;-61
2022/06/29 09:39:42;;;;;;;;;;;22.30;66.30;;;;;;5117467;27;20369;-62
2022/06/29 09:42:12;;;;;;;;;;;22.30;66.20;;;;;;5115138;28;19916;-60
2022/06/29 09:44:37;;;;;;;;;;;22.30;66.50;;;;;;5114112;28;20281;-61
2022/06/29 09:47:05;;;;;;;;;;;22.30;66.20;;;;;;5112882;28;20361;-61
2022/06/29 09:49:32;;;;;;;;;;;22.30;65.60;;;;;;5117913;28;19923;-62
2022/06/29 09:51:59;;;;;;;;;;;22.30;66.00;;;;;;5112387;28;20448;-60
2022/06/29 09:54:26;;;;;;;;;;;22.40;66.10;;;;;;5110874;28;20393;-61
2022/06/29 09:56:55;;;;;;;;;;;22.40;66.00;;;;;;5113099;27;20282;-60
2022/06/29 10:05:00;;;;;;;;;;;22.50;65.70;;;;;;5113410;28;19993;-61
2022/06/29 10:07:27;;;;;;;;;;;22.50;65.50;;;;;;5111411;28;19952;-61
2022/06/29 10:09:53;;;;;;;;;;;22.50;65.40;;;;;;5112860;28;19962;-62
2022/06/29 10:15:12;;;;;;;;;;;22.50;65.50;;;;;;5112721;28;19918;-60
2022/06/29 10:17:41;;;;;;;;;;;22.50;65.30;;;;;;5115879;28;20356;-60
2022/06/29 10:20:18;;;;;;;;;;;22.50;65.00;;;;;;5114043;28;19916;-61
2022/06/29 10:22:44;;;;;;;;;;;22.50;65.50;;;;;;5111948;28;24405;-60
2022/06/29 10:25:11;;;;;;;;;;;22.50;64.40;;;;;;5108751;28;20296;-62
2022/06/29 10:27:37;;;;;;;;;;;22.50;64.70;;;;;;5109617;28;19916;-60
2022/06/29 10:30:21;;;;;;;;;;;22.50;64.40;;;;;;5117982;27;20367;-61
2022/06/29 10:32:47;;;;;;;;;;;22.50;64.30;;;;;;5120504;27;20011;-60
2022/06/29 10:35:13;;;;;;;;;;;22.50;64.00;;;;;;5111434;28;20006;-62
2022/06/29 10:37:52;;;;;;;;;;;22.60;64.00;;;;;;5115033;28;19919;-61
2022/06/29 10:40:19;;;;;;;;;;;22.60;64.00;;;;;;5115792;28;19922;-61
2022/06/29 10:45:51;;;;;;;;;;;22.60;63.80;;;;;;5100438;28;20285;-60
2022/06/29 10:48:17;;;;;;;;;;;22.60;63.30;;;;;;5095946;28;19959;-61
2022/06/29 10:50:43;;;;;;;;;;;22.70;63.70;;;;;;5101413;28;19923;-59
2022/06/29 10:53:10;;;;;;;;;;;22.60;62.40;;;;;;5099455;28;20395;-61
2022/06/29 10:55:37;;;;;;;;;;;22.60;62.40;;;;;;5097149;28;19951;-61
2022/06/29 10:58:03;;;;;;;;;;;22.60;62.00;;;;;;5103227;28;19916;-61
2022/06/29 11:00:30;;;;;;;;;;;22.70;60.90;;;;;;5097973;27;20017;-60
2022/06/29 11:02:55;;;;;;;;;;;22.70;61.00;;;;;;5096969;28;19965;-61
2022/06/29 11:05:21;;;;;;;;;;;22.80;61.70;;;;;;5098128;28;20292;-61
2022/06/29 11:13:25;;;;;;;;;;;22.80;61.80;;;;;;5112300;27;19973;-62
2022/06/29 11:15:51;;;;;;;;;;;22.90;62.10;;;;;;5108610;27;19952;-62
2022/06/29 11:18:27;;;;;;;;;;;22.90;61.90;;;;;;5094443;28;19918;-63
2022/06/29 11:20:53;;;;;;;;;;;22.90;60.90;;;;;;5101466;28;19916;-62
2022/06/29 11:23:19;;;;;;;;;;;23.00;60.90;;;;;;5083148;28;20395;-61
2022/06/29 11:25:47;;;;;;;;;;;23.00;60.30;;;;;;5102146;28;19965;-61
2022/06/29 11:28:13;;;;;;;;;;;23.00;61.60;;;;;;5103660;28;20331;-62
2022/06/29 11:30:39;;;;;;;;;;;23.00;61.20;;;;;;5100733;28;19917;-62
2022/06/29 11:33:11;;;;;;;;;;;23.00;61.50;;;;;;5095030;28;19965;-61
2022/06/29 11:35:42;;;;;;;;;;;23.10;61.60;;;;;;5096962;28;20006;-62
2022/06/29 11:38:08;;;;;;;;;;;23.20;61.80;;;;;;5097516;28;19939;-62
2022/06/29 11:40:41;;;;;;;;;;;23.20;61.50;;;;;;5097230;28;19998;-63
2022/06/29 11:43:11;;;;;;;;;;;23.20;62.00;;;;;;5100190;28;19912;-63
2022/06/29 11:45:36;;;;;;;;;;;23.20;61.70;;;;;;5097957;28;20399;-62
2022/06/29 11:48:09;;;;;;;;;;;23.30;61.70;;;;;;5099203;28;19913;-62
2022/06/29 11:50:43;;;;;;;;;;;23.30;60.80;;;;;;5099153;28;19912;-63
2022/06/29 11:53:09;;;;;;;;;;;23.30;61.40;;;;;;5098175;28;19916;-63
2022/06/29 11:55:42;;;;;;;;;;;23.40;61.10;;;;;;5099136;28;20372;-64
2022/06/29 11:58:11;;;;;;;;;;;23.40;61.40;;;;;;5096402;28;19912;-64
2022/06/29 12:00:39;;;;;;;;;;;23.60;60.90;;;;;;5092743;28;19928;-61
2022/06/29 12:03:04;;;;;;;;;;;23.60;60.90;;;;;;5094025;27;20322;-61
2022/06/29 12:05:30;;;;;;;;;;;23.70;60.60;;;;;;5100724;28;20404;-62
2022/06/29 12:07:55;;;;;;;;;;;23.70;60.40;;;;;;5103126;28;19916;-62
2022/06/29 12:10:21;;;;;;;;;;;23.80;60.00;;;;;;5098066;28;19918;-61
2022/06/29 12:12:47;;;;;;;;;;;23.90;60.20;;;;;;5098187;27;20015;-61
2022/06/29 12:15:14;;;;;;;;;;;23.90;60.30;;;;;;5096769;28;20407;-60
2022/06/29 12:17:39;;;;;;;;;;;23.90;59.90;;;;;;5095095;27;19919;-60
2022/06/29 12:20:06;;;;;;;;;;;24.00;60.40;;;;;;5085833;27;19912;-60
2022/06/29 12:22:34;;;;;;;;;;;24.00;60.30;;;;;;5111175;27;20421;-62
2022/06/29 12:24:59;;;;;;;;;;;24.10;60.30;;;;;;5108784;27;19919;-61
2022/06/29 12:27:24;;;;;;;;;;;24.20;59.20;;;;;;5102215;27;19912;-60
2022/06/29 12:29:50;;;;;;;;;;;24.40;59.60;;;;;;5094891;28;19920;-61
2022/06/29 12:32:15;;;;;;;;;;;24.50;60.10;;;;;;5092003;28;19923;-62
2022/06/29 12:34:42;;;;;;;;;;;24.60;59.20;;;;;;5094506;28;19927;-59
2022/06/29 12:37:07;;;;;;;;;;;24.60;59.60;;;;;;5102000;28;19912;-59
2022/06/29 12:39:33;;;;;;;;;;;24.60;59.50;;;;;;5098905;28;19912;-58
2022/06/29 12:41:58;;;;;;;;;;;24.50;58.20;;;;;;5098730;28;20380;-58
2022/06/29 12:44:24;;;;;;;;;;;24.50;58.80;;;;;;5098768;28;19965;-58
2022/06/29 12:46:50;;;;;;;;;;;24.40;59.00;;;;;;5094089;28;19916;-58
2022/06/29 12:49:15;;;;;;;;;;;24.50;59.00;;;;;;5100837;27;20852;-58
2022/06/29 12:51:41;;;;;;;;;;;24.50;59.00;;;;;;5102411;27;20362;-59
2022/06/29 12:54:06;;;;;;;;;;;24.40;58.20;;;;;;5107212;27;19927;-59
2022/06/29 12:56:32;;;;;;;;;;;24.40;58.30;;;;;;5108446;27;20011;-59
2022/06/29 12:58:57;;;;;;;;;;;24.50;58.60;;;;;;5107929;27;19911;-57
2022/06/29 13:01:23;;;;;;;;;;;24.60;59.00;;;;;;5106265;27;20430;-57
2022/06/29 13:03:48;;;;;;;;;;;24.60;58.60;;;;;;5109600;27;19985;-58
2022/06/29 13:06:14;;;;;;;;;;;24.70;58.50;;;;;;5095969;28;19912;-59
2022/06/29 13:08:39;;;;;;;;;;;24.70;58.70;;;;;;5093668;28;19916;-58
2022/06/29 13:11:05;;;;;;;;;;;24.70;58.60;;;;;;5095797;28;20510;-58
2022/06/29 13:13:30;;;;;;;;;;;24.70;58.40;;;;;;5092066;28;20013;-59
2022/06/29 13:15:56;;;;;;;;;;;24.60;58.30;;;;;;5097957;28;20692;-58
2022/06/29 13:18:22;;;;;;;;;;;24.60;58.50;;;;;;5090977;28;19917;-58
2022/06/29 13:20:47;;;;;;;;;;;24.60;58.30;;;;;;5095426;28;20402;-58
2022/06/29 13:23:17;;;;;;;;;;;24.60;58.20;;;;;;5094411;28;19938;-58
2022/06/29 13:25:43;;;;;;;;;;;24.60;58.20;;;;;;5100796;28;20392;-57
2022/06/29 13:28:08;;;;;;;;;;;24.60;58.10;;;;;;5092732;28;20387;-58
2022/06/29 13:30:34;;;;;;;;;;;24.70;58.50;;;;;;5097212;28;19916;-58
2022/06/29 13:32:59;;;;;;;;;;;24.80;58.40;;;;;;5094428;28;20457;-58
2022/06/29 13:35:25;;;;;;;;;;;24.80;58.20;;;;;;5097367;28;20388;-58
2022/06/29 13:37:53;;;;;;;;;;;24.90;58.50;;;;;;5096052;28;19970;-59
2022/06/29 13:40:19;;;;;;;;;;;25.00;58.40;;;;;;5096658;28;19916;-58
2022/06/29 13:42:44;;;;;;;;;;;25.00;58.70;;;;;;5101443;28;19981;-59
2022/06/29 13:45:10;;;;;;;;;;;25.10;58.20;;;;;;5095506;28;19923;-58
2022/06/29 13:47:35;;;;;;;;;;;25.10;58.30;;;;;;5094505;28;19912;-57
2022/06/29 13:50:01;;;;;;;;;;;25.10;57.30;;;;;;5095179;28;19927;-58
2022/06/29 13:52:26;;;;;;;;;;;25.10;58.10;;;;;;5098423;28;19916;-58
2022/06/29 13:54:52;;;;;;;;;;;25.10;57.70;;;;;;5092185;28;20277;-58
2022/06/29 13:57:17;;;;;;;;;;;25.10;58.10;;;;;;5096772;28;20014;-58
2022/06/29 13:59:43;;;;;;;;;;;25.20;57.80;;;;;;5095666;28;20332;-58
2022/06/29 14:02:08;;;;;;;;;;;25.20;57.80;;;;;;5095712;28;19916;-59
2022/06/29 14:04:34;;;;;;;;;;;25.30;57.90;;;;;;5095166;28;20494;-58
2022/06/29 14:07:00;;;;;;;;;;;25.40;57.70;;;;;;5093347;28;19920;-58
2022/06/29 14:09:25;;;;;;;;;;;25.40;57.70;;;;;;5094720;28;19915;-58
2022/06/29 14:11:51;;;;;;;;;;;25.50;57.70;;;;;;5100125;28;19915;-58
2022/06/29 14:14:17;;;;;;;;;;;25.60;57.70;;;;;;5110118;28;19924;-59
2022/06/29 14:16:42;;;;;;;;;;;25.60;57.70;;;;;;5104488;28;19972;-59
2022/06/29 14:19:08;;;;;;;;;;;25.70;56.90;;;;;;5110561;28;20384;-58
2022/06/29 14:21:34;;;;;;;;;;;25.60;57.10;;;;;;5099439;28;19916;-58
2022/06/29 14:23:59;;;;;;;;;;;25.70;57.30;;;;;;5101120;28;19923;-58
2022/06/29 14:26:25;;;;;;;;;;;25.70;57.60;;;;;;5100216;28;19912;-56
2022/06/29 14:28:51;;;;;;;;;;;25.70;57.50;;;;;;5100475;28;20051;-58
2022/06/29 14:31:16;;;;;;;;;;;25.70;57.30;;;;;;5098829;28;19919;-58
2022/06/29 14:33:42;;;;;;;;;;;25.80;57.40;;;;;;5103201;28;19919;-58